Time;durP1;ratioP1;P1;durP2;ratioP2;P2;SDS_P1;SDS_P2;PMS_P1;PMS_P2;Temp;Humidity;BMP_temperature;BMP_pressure;BME280_temperature;BME280_humidity;BME280_pressure;Samples;Min_cycle;Max_cycle;Signal;HPM_P1;HPM_P2
2022/07/15 00:02:23;;;;;;;3.13;2.60;;;;;;;19.83;100.00;151021.44;5091383;28;20579;-61
2022/07/15 00:04:50;;;;;;;3.87;2.50;;;;;;;19.57;100.00;150957.81;5092497;28;20556;-62
2022/07/15 00:07:17;;;;;;;2.28;2.17;;;;;;;19.63;100.00;150971.81;5092200;28;20271;-62
2022/07/15 00:12:28;;;;;;;3.57;2.20;;;;;;;19.57;100.00;150956.53;5092415;28;20707;-61
2022/07/15 00:14:58;;;;;;;2.03;1.93;;;;;;;19.52;100.00;150943.78;5091979;28;20195;-62
2022/07/15 00:17:25;;;;;;;2.93;2.50;;;;;;;19.47;100.00;150932.38;5091980;28;20212;-62
2022/07/15 00:19:52;;;;;;;5.77;2.60;;;;;;;19.51;100.00;150942.56;5092228;28;20648;-62
2022/07/15 00:22:19;;;;;;;2.50;2.30;;;;;;;19.70;100.00;150988.34;5092236;28;20184;-61
2022/07/15 00:24:46;;;;;;;5.00;2.00;;;;;;;19.74;100.00;150999.81;5091800;28;20183;-62
2022/07/15 00:27:14;;;;;;;5.63;2.40;;;;;;;19.86;100.00;151029.13;5091060;28;20291;-63
2022/07/15 00:29:41;;;;;;;3.13;2.03;;;;;;;19.84;100.00;151024.00;5091377;28;20253;-62
2022/07/15 00:32:10;;;;;;;5.10;2.40;;;;;;;19.51;100.00;150942.56;5091809;28;20187;-61
2022/07/15 00:34:37;;;;;;;7.13;1.97;;;;;;;19.39;100.00;150910.72;5091914;28;20184;-62
2022/07/15 00:37:04;;;;;;;8.63;2.30;;;;;;;19.41;100.00;150917.03;5091664;28;20280;-62
2022/07/15 00:39:32;;;;;;;3.10;2.37;;;;;;;19.37;100.00;150906.88;5092021;28;20298;-60
2022/07/15 00:41:59;;;;;;;3.10;2.20;;;;;;;19.31;100.00;150891.56;5091614;28;20215;-61
2022/07/15 00:44:26;;;;;;;7.40;2.25;;;;;;;19.17;100.00;150857.25;5091957;28;20626;-61
2022/07/15 00:46:53;;;;;;;2.70;2.57;;;;;;;19.10;100.00;150839.41;5091811;28;20199;-61
2022/07/15 00:49:21;;;;;;;2.40;2.30;;;;;;;19.02;100.00;150817.78;5091824;28;20180;-62
2022/07/15 00:51:52;;;;;;;2.67;2.47;;;;;;;19.12;100.00;150843.25;5090595;28;20184;-62
2022/07/15 00:54:26;;;;;;;7.37;2.13;;;;;;;19.19;100.00;150861.03;5091509;28;20184;-61
2022/07/15 00:56:55;;;;;;;2.10;1.87;;;;;;;19.11;100.00;150840.69;5091489;28;20358;-61
2022/07/15 00:59:25;;;;;;;4.37;2.10;;;;;;;19.06;100.00;150827.97;5091718;28;20196;-61
2022/07/15 01:01:57;;;;;;;4.60;2.20;;;;;;;19.30;100.00;150887.78;5091362;28;20200;-62
2022/07/15 01:04:28;;;;;;;2.77;2.00;;;;;;;19.38;100.00;150908.16;5091615;28;20196;-62
2022/07/15 01:06:55;;;;;;;2.20;2.00;;;;;;;19.12;100.00;150843.25;5091700;28;20187;-62
2022/07/15 01:09:22;;;;;;;5.70;2.30;;;;;;;19.23;100.00;150871.22;5091410;28;20275;-61
2022/07/15 01:11:49;;;;;;;2.50;2.30;;;;;;;19.26;100.00;150878.88;5091201;28;20596;-61
2022/07/15 01:14:17;;;;;;;2.17;2.07;;;;;;;19.32;100.00;150892.84;5091365;28;20198;-61
2022/07/15 01:16:44;;;;;;;3.37;2.37;;;;;;;19.36;100.00;150904.31;5091254;28;20188;-60
2022/07/15 01:19:10;;;;;;;2.13;2.00;;;;;;;19.43;100.00;150920.94;5091383;28;20714;-62
2022/07/15 01:21:39;;;;;;;6.80;2.77;;;;;;;19.31;100.00;150890.34;5091342;28;20189;-61
2022/07/15 01:24:07;;;;;;;4.40;2.30;;;;;;;19.11;100.00;150840.69;5091406;28;20268;-62
2022/07/15 01:26:33;;;;;;;8.33;2.40;;;;;;;19.10;100.00;150838.13;5090371;28;20188;-62
2022/07/15 01:29:00;;;;;;;2.33;2.23;;;;;;;19.01;100.00;150815.28;5091345;28;20180;-61
2022/07/15 01:31:27;;;;;;;6.93;2.40;;;;;;;18.95;100.00;150801.28;5091521;28;20184;-62
2022/07/15 01:33:55;;;;;;;1.93;1.87;;;;;;;19.00;100.00;150812.72;5091235;28;20199;-61
2022/07/15 01:36:22;;;;;;;2.17;2.07;;;;;;;19.09;100.00;150835.63;5091561;28;20199;-62
2022/07/15 01:38:50;;;;;;;5.13;2.17;;;;;;;19.00;100.00;150812.72;5092150;28;20206;-61
2022/07/15 01:41:17;;;;;;;8.40;2.43;;;;;;;18.69;100.00;150736.41;5094940;28;20258;-63
2022/07/15 01:43:44;;;;;;;2.67;2.47;;;;;;;18.39;100.00;150658.75;5094851;28;20200;-61
2022/07/15 01:46:11;;;;;;;3.13;2.70;;;;;;;18.56;100.00;150703.31;5095200;28;20187;-62
2022/07/15 01:51:22;;;;;;;3.93;2.93;;;;;;;18.34;100.00;150647.31;5094924;28;20314;-61
2022/07/15 01:53:50;;;;;;;7.83;3.33;;;;;;;18.42;100.00;150666.38;5093744;28;20184;-61
2022/07/15 01:56:17;;;;;;;4.70;2.97;;;;;;;18.22;100.00;150618.06;5094716;28;20188;-62
2022/07/15 01:58:44;;;;;;;8.43;3.40;;;;;;;18.32;100.00;150640.97;5094458;28;20208;-61
2022/07/15 02:01:14;;;;;;;5.10;3.20;;;;;;;17.92;100.00;150540.50;5094529;28;20233;-61
2022/07/15 02:03:41;;;;;;;4.73;3.37;;;;;;;18.15;100.00;150599.00;5094907;28;20184;-62
2022/07/15 02:06:08;;;;;;;3.70;3.10;;;;;;;18.23;100.00;150619.34;5094402;28;20188;-62
2022/07/15 02:08:35;;;;;;;5.47;3.33;;;;;;;18.16;100.00;150602.81;5094456;28;20185;-61
2022/07/15 02:11:04;;;;;;;6.43;3.30;;;;;;;18.02;100.00;150565.97;5094346;28;20238;-62
2022/07/15 02:13:30;;;;;;;8.27;3.77;;;;;;;17.97;100.00;150553.22;5094632;28;20180;-61
2022/07/15 02:15:57;;;;;;;4.80;3.20;;;;;;;18.17;100.00;150605.34;5094666;28;20558;-61
2022/07/15 02:18:24;;;;;;;3.87;3.40;;;;;;;18.37;100.00;150653.69;5095073;28;20223;-61
2022/07/15 02:20:51;;;;;;;7.57;3.30;;;;;;;18.48;100.00;150682.94;5094595;28;20210;-61
2022/07/15 02:23:18;;;;;;;3.67;3.00;;;;;;;18.45;100.00;150675.31;5094608;28;20191;-61
2022/07/15 02:25:45;;;;;;;5.40;3.10;;;;;;;18.42;100.00;150667.66;5094416;28;20275;-62
2022/07/15 02:28:14;;;;;;;11.50;3.53;;;;;;;18.39;100.00;150660.03;5094007;28;20180;-62
2022/07/15 02:30:45;;;;;;;4.07;3.00;;;;;;;18.38;100.00;150656.19;5093858;28;20602;-62
2022/07/15 02:33:13;;;;;;;4.10;3.10;;;;;;;18.49;100.00;150685.50;5093931;28;20288;-61
2022/07/15 02:35:41;;;;;;;5.27;2.80;;;;;;;18.47;100.00;150680.38;5094157;28;20227;-61
2022/07/15 02:38:08;;;;;;;4.53;3.30;;;;;;;18.08;100.00;150581.19;5093788;28;20204;-61
2022/07/15 02:40:35;;;;;;;8.90;2.97;;;;;;;18.28;100.00;150632.06;5094140;28;20570;-62
2022/07/15 02:43:03;;;;;;;3.90;3.50;;;;;;;18.32;100.00;150642.25;5094075;28;20195;-62
2022/07/15 02:45:35;;;;;;;3.63;3.00;;;;;;;18.32;100.00;150640.97;5093991;28;20184;-62
2022/07/15 02:48:02;;;;;;;5.53;3.03;;;;;;;18.36;100.00;150651.13;5094089;28;20567;-62
2022/07/15 02:50:29;;;;;;;4.67;3.30;;;;;;;18.50;100.00;150688.00;5092938;28;20215;-62
2022/07/15 02:52:56;;;;;;;6.13;3.40;;;;;;;18.58;100.00;150707.16;5093542;28;20194;-62
2022/07/15 02:55:23;;;;;;;7.67;3.23;;;;;;;18.52;100.00;150693.16;5093697;28;20188;-62
2022/07/15 02:57:50;;;;;;;4.37;3.47;;;;;;;18.48;100.00;150681.66;5093674;28;20690;-62
2022/07/15 03:00:19;;;;;;;15.30;3.83;;;;;;;18.58;100.00;150708.44;5093783;28;20621;-62
2022/07/15 03:02:48;;;;;;;10.80;3.50;;;;;;;18.61;100.00;150716.06;5093327;28;20180;-61
2022/07/15 03:05:17;;;;;;;4.50;3.47;;;;;;;18.57;100.00;150705.88;5093733;28;20222;-62
2022/07/15 03:07:44;;;;;;;4.80;3.23;;;;;;;18.83;100.00;150769.47;5093498;28;20184;-62
2022/07/15 03:10:13;;;;;;;5.27;4.00;;;;;;;18.80;100.00;150761.84;5091973;28;20230;-62
2022/07/15 03:12:39;;;;;;;17.47;3.60;;;;;;;18.85;100.00;150774.53;5093136;28;20200;-62
2022/07/15 03:15:08;;;;;;;11.63;4.27;;;;;;;18.99;100.00;150810.16;5093183;28;20188;-62
2022/07/15 03:17:35;;;;;;;14.93;4.73;;;;;;;18.95;100.00;150800.00;5093085;28;20192;-62
2022/07/15 03:20:04;;;;;;;8.03;3.70;;;;;;;19.17;100.00;150855.97;5093356;28;20558;-62
2022/07/15 03:22:31;;;;;;;9.80;5.30;;;;;;;19.79;100.00;151011.28;5093336;28;20630;-63
2022/07/15 03:24:57;;;;;;;10.87;4.93;;;;;;;20.51;100.00;151194.66;5093389;28;20550;-61
2022/07/15 03:27:24;;;;;;;15.40;6.73;;;;;;;21.17;100.00;151360.34;5092981;28;20198;-62
2022/07/15 03:29:51;;;;;;;25.70;6.47;;;;;;;21.80;100.00;151518.34;5093096;28;20579;-62
2022/07/15 03:32:19;;;;;;;13.70;5.38;;;;;;;22.38;100.00;151663.72;5093157;28;20555;-61
2022/07/15 03:34:48;;;;;;;21.10;5.93;;;;;;;22.31;100.00;151648.44;5093065;28;20642;-61
2022/07/15 03:37:16;;;;;;;22.27;6.75;;;;;;;22.01;100.00;151571.94;5092764;28;20189;-62
2022/07/15 03:39:43;;;;;;;12.55;6.10;;;;;;;21.69;100.00;151490.28;5092969;28;20203;-62
2022/07/15 03:42:11;;;;;;;19.88;6.75;;;;;;;21.52;100.00;151448.22;5093196;28;20184;-62
2022/07/15 03:44:38;;;;;;;12.48;5.68;;;;;;;21.67;100.00;151486.47;5092573;28;20188;-61
2022/07/15 03:47:05;;;;;;;15.90;6.10;;;;;;;21.64;100.00;151478.81;5092993;28;20257;-62
2022/07/15 03:49:32;;;;;;;20.92;5.35;;;;;;;21.99;100.00;151566.81;5092890;28;20542;-62
2022/07/15 03:51:59;;;;;;;10.60;5.22;;;;;;;22.18;100.00;151615.28;5092648;28;20200;-62
2022/07/15 03:54:27;;;;;;;11.90;5.65;;;;;;;22.42;100.00;151673.91;5092425;28;20195;-62
2022/07/15 03:56:54;;;;;;;15.63;6.38;;;;;;;22.38;100.00;151665.00;5092611;28;20206;-62
2022/07/15 03:59:21;;;;;;;16.15;6.03;;;;;;;22.41;100.00;151671.34;5092390;28;20204;-61
2022/07/15 04:01:49;;;;;;;13.75;6.50;;;;;;;22.41;100.00;151671.34;5092414;28;20256;-63
2022/07/15 04:04:17;;;;;;;11.82;5.95;;;;;;;22.80;100.00;151770.91;5092174;28;20246;-63
2022/07/15 04:06:44;;;;;;;9.55;5.85;;;;;;;23.35;100.00;151909.97;5092263;28;20181;-62
2022/07/15 04:09:11;;;;;;;19.77;6.47;;;;;;;23.56;100.00;151963.63;5092231;28;20187;-62
2022/07/15 04:11:41;;;;;;;17.50;6.43;;;;;;;23.46;100.00;151936.84;5091952;28;20293;-62
2022/07/15 04:14:10;;;;;;;16.83;7.07;;;;;;;23.40;100.00;151921.44;5092284;28;20565;-62
2022/07/15 04:16:37;;;;;;;18.10;6.93;;;;;;;23.47;100.00;151939.34;5092203;28;20224;-62
2022/07/15 04:19:04;;;;;;;26.27;8.40;;;;;;;23.37;100.00;151913.81;5092216;28;20208;-61
2022/07/15 04:21:31;;;;;;;19.23;7.93;;;;;;;23.49;100.00;151944.47;5091516;28;20200;-62
2022/07/15 04:23:58;;;;;;;24.88;7.60;;;;;;;23.53;100.00;151954.69;5091894;28;20183;-64
2022/07/15 04:26:25;;;;;;;20.33;7.28;;;;;;;23.59;100.00;151970.03;5091874;28;20184;-61
2022/07/15 04:28:53;;;;;;;16.70;6.70;;;;;;;23.65;100.00;151985.31;5091907;28;20184;-60
2022/07/15 04:31:20;;;;;;;8.93;6.28;;;;;;;23.57;100.00;151964.91;5092145;28;20267;-60
2022/07/15 04:33:47;;;;;;;16.15;6.40;;;;;;;23.83;100.00;152030.00;5092032;28;20184;-60
2022/07/15 04:36:14;;;;;;;28.52;6.68;;;;;;;23.98;100.00;152069.53;5092598;28;20195;-61
2022/07/15 04:38:41;;;;;;;16.73;6.30;;;;;;;24.14;100.00;152110.38;5091959;28;20235;-61
2022/07/15 04:41:08;;;;;;;13.55;6.22;;;;;;;24.35;100.00;152161.53;5092387;28;20188;-61
2022/07/15 04:43:35;;;;;;;31.33;6.60;;;;;;;24.33;100.00;152156.41;5091575;28;20184;-60
2022/07/15 04:46:03;;;;;;;18.92;6.40;;;;;;;24.75;100.00;152263.69;5091684;28;20184;-61
2022/07/15 04:51:15;;;;;;;21.20;6.05;;;;;;;25.20;100.00;152377.44;5091607;28;20523;-61
2022/07/15 04:53:41;;;;;;;17.45;5.95;;;;;;;25.32;100.00;152408.13;5091617;28;20210;-61
2022/07/15 04:56:08;;;;;;;16.23;5.75;;;;;;;25.39;100.00;152424.69;5091357;28;20195;-61
2022/07/15 04:58:35;;;;;;;15.88;4.80;;;;;;;25.31;100.00;152405.53;5091387;28;20200;-60
2022/07/15 05:01:03;;;;;;;15.23;5.55;;;;;;;25.39;100.00;152424.69;5091403;28;20180;-61
2022/07/15 05:03:30;;;;;;;20.00;5.35;;;;;;;25.27;100.00;152395.31;5091665;28;20183;-60
2022/07/15 05:05:57;;;;;;;13.38;6.22;;;;;;;25.33;100.00;152410.63;5091667;28;20242;-61
2022/07/15 05:08:24;;;;;;;25.58;7.30;;;;;;;25.53;100.00;152460.53;5091850;28;20184;-60
2022/07/15 05:14:13;;;;;;;27.52;7.63;;;;;;;25.31;100.00;152404.25;5086559;28;20259;-61
2022/07/15 05:16:41;;;;;;;27.48;8.20;;;;;;;25.64;100.00;152487.34;5076053;28;20211;-61
2022/07/15 05:19:08;;;;;;;24.58;7.95;;;;;;;25.62;100.00;152483.56;5074586;28;20204;-60
2022/07/15 05:21:35;;;;;;;18.80;7.15;;;;;;;25.61;100.00;152480.97;5074917;28;20204;-59
2022/07/15 05:24:02;;;;;;;29.40;7.88;;;;;;;25.90;100.00;152555.09;5074898;28;20200;-60
2022/07/15 05:26:29;;;;;;;29.23;7.82;;;;;;;26.04;98.91;152588.34;5074353;28;20188;-59
2022/07/15 05:28:56;;;;;;;24.40;7.43;;;;;;;26.30;98.33;152654.88;5074702;28;20186;-59
2022/07/15 05:31:23;;;;;;;28.15;8.57;;;;;;;26.45;98.17;152693.22;5074407;28;20188;-60
2022/07/15 05:33:52;;;;;;;24.20;9.00;;;;;;;26.67;94.78;152749.50;5073792;28;20567;-60
2022/07/15 05:36:19;;;;;;;31.95;8.13;;;;;;;26.82;92.82;152786.56;5074597;28;20239;-60
2022/07/15 05:38:46;;;;;;;27.95;9.73;;;;;;;26.95;92.76;152818.56;5074516;28;20204;-60
2022/07/15 05:41:15;;;;;;;28.10;8.88;;;;;;;27.14;91.68;152867.22;5074093;28;20184;-61
2022/07/15 05:43:42;;;;;;;29.25;8.98;;;;;;;27.32;90.11;152913.28;5074408;28;20189;-60
2022/07/15 05:46:09;;;;;;;31.23;9.10;;;;;;;27.41;87.35;152936.31;5074857;28;20296;-60
2022/07/15 05:48:37;;;;;;;23.52;8.57;;;;;;;27.75;87.05;153020.81;5074502;28;20181;-61
2022/07/15 05:51:06;;;;;;;30.38;8.60;;;;;;;28.09;84.88;153107.84;5089618;28;20203;-60
2022/07/15 05:53:33;;;;;;;20.17;8.32;;;;;;;28.43;80.08;153193.66;5088585;28;20200;-61
2022/07/15 05:56:00;;;;;;;20.55;8.02;;;;;;;28.45;76.50;153200.03;5083942;28;20663;-60
2022/07/15 05:58:27;;;;;;;24.67;7.53;;;;;;;28.79;77.23;153285.84;5082812;28;20313;-59
2022/07/15 06:00:54;;;;;;;20.55;7.65;;;;;;;28.90;75.62;153314.00;5088413;28;20263;-61
2022/07/15 06:03:21;;;;;;;33.17;8.27;;;;;;;29.28;75.37;153410.06;5093503;28;20241;-59
2022/07/15 06:05:48;;;;;;;24.33;8.20;;;;;;;29.63;72.89;153498.53;5094270;28;20180;-60
2022/07/15 06:08:17;;;;;;;21.35;7.53;;;;;;;29.70;71.68;153515.19;5092856;28;20630;-60
2022/07/15 06:10:44;;;;;;;21.45;8.20;;;;;;;29.60;70.50;153489.56;5093984;28;20228;-59
2022/07/15 06:13:12;;;;;;;23.58;8.52;;;;;;;29.62;70.03;153494.72;5092823;28;20244;-60
2022/07/15 06:15:39;;;;;;;23.95;7.07;;;;;;;29.87;68.45;153558.81;5093434;28;20180;-59
2022/07/15 06:18:06;;;;;;;10.60;6.57;;;;;;;30.45;64.24;153706.22;5085274;28;20200;-60
2022/07/15 06:20:33;;;;;;;18.20;7.00;;;;;;;30.75;60.76;153783.16;5075713;28;20216;-60
2022/07/15 06:23:00;;;;;;;19.38;6.68;;;;;;;31.10;57.77;153871.69;5073350;28;20238;-61
2022/07/15 06:25:28;;;;;;;16.85;5.80;;;;;;;31.46;54.51;153962.72;5072534;28;20193;-60
2022/07/15 06:27:55;;;;;;;19.67;6.13;;;;;;;31.89;54.43;154070.50;5074290;28;20692;-60
2022/07/15 06:30:22;;;;;;;22.45;5.60;;;;;;;32.27;53.39;154166.78;5073560;28;20189;-59
2022/07/15 06:32:49;;;;;;;13.02;5.32;;;;;;;32.62;51.88;154256.66;5073920;28;20191;-57
2022/07/15 06:35:16;;;;;;;12.40;5.10;;;;;;;32.27;52.06;154166.78;5080988;28;20195;-58
2022/07/15 06:37:43;;;;;;;19.05;5.45;;;;;;;32.57;51.23;154243.78;5093863;28;20195;-60
2022/07/15 06:40:10;;;;;;;15.55;5.20;;;;;;;32.77;50.55;154293.88;5093254;28;20226;-60
2022/07/15 06:42:39;;;;;;;14.13;4.53;;;;;;;32.58;48.94;154246.34;5093324;28;20195;-59
2022/07/15 06:45:07;;;;;;;14.70;4.63;;;;;;;32.44;48.81;154211.69;5093104;28;20646;-59
2022/07/15 06:47:34;;;;;;;12.15;3.92;;;;;;;33.16;46.85;154394.06;5093283;28;20182;-60
2022/07/15 06:50:02;;;;;;;11.45;3.83;;;;;;;33.90;46.40;154582.88;5093186;28;20234;-59
2022/07/15 06:52:29;;;;;;;8.00;3.63;;;;;;;34.52;43.58;154739.63;5091732;28;20196;-59
2022/07/15 06:55:00;;;;;;;10.48;3.30;;;;;;;34.61;42.35;154762.75;5092674;28;20190;-61
2022/07/15 06:57:28;;;;;;;5.20;3.30;;;;;;;34.81;41.74;154812.91;5093144;28;20199;-60
2022/07/15 06:59:57;;;;;;;3.42;3.13;;;;;;;35.05;40.38;154873.34;5093015;28;20548;-59
2022/07/15 07:02:23;;;;;;;13.40;3.65;;;;;;;35.00;41.56;154860.47;5091500;28;20194;-60
2022/07/15 07:04:50;;;;;;;9.90;4.20;;;;;;;34.91;43.00;154838.63;5080708;28;20536;-60
2022/07/15 07:07:18;;;;;;;4.95;3.20;;;;;;;34.52;41.93;154739.63;5080785;28;20201;-60
2022/07/15 07:09:45;;;;;;;8.48;3.63;;;;;;;34.27;42.98;154675.41;5092560;28;20224;-59
2022/07/15 07:12:12;;;;;;;10.70;3.40;;;;;;;33.72;42.72;154535.34;5093197;28;20188;-60
2022/07/15 07:14:39;;;;;;;4.90;3.65;;;;;;;33.35;42.52;154442.88;5090585;28;20231;-60
2022/07/15 07:17:07;;;;;;;5.40;3.97;;;;;;;33.38;42.57;154449.25;5092596;28;20192;-60
2022/07/15 07:19:34;;;;;;;5.90;3.58;;;;;;;33.83;42.25;154564.88;5091246;28;20216;-60
2022/07/15 07:22:01;;;;;;;4.72;2.85;;;;;;;34.01;41.42;154608.53;5092927;28;20188;-60
2022/07/15 07:24:28;;;;;;;7.13;3.55;;;;;;;34.09;41.80;154629.09;5092098;28;20195;-59
2022/07/15 07:26:55;;;;;;;5.93;3.20;;;;;;;33.78;43.23;154552.03;5092769;28;20576;-59
2022/07/15 07:29:23;;;;;;;3.78;2.65;;;;;;;33.78;42.63;154552.03;5092496;28;20195;-60
2022/07/15 07:31:51;;;;;;;2.97;2.55;;;;;;;34.00;42.04;154605.97;5091976;28;20196;-60
2022/07/15 07:34:19;;;;;;;2.13;2.03;;;;;;;33.95;42.22;154595.69;5092171;28;20283;-59
2022/07/15 07:36:48;;;;;;;5.53;4.28;;;;;;;33.96;42.24;154598.28;5092067;28;20653;-60
2022/07/15 07:39:15;;;;;;;3.25;2.25;;;;;;;33.87;42.72;154575.16;5092204;28;20200;-60
2022/07/15 07:41:42;;;;;;;7.35;2.45;;;;;;;33.77;41.82;154548.19;5092585;28;20194;-60
2022/07/15 07:44:09;;;;;;;5.07;1.77;;;;;;;33.97;42.24;154600.84;5092332;28;20557;-60
2022/07/15 07:46:36;;;;;;;3.30;1.75;;;;;;;34.04;43.58;154616.22;5092129;28;20184;-59
2022/07/15 07:49:06;;;;;;;6.50;2.10;;;;;;;33.97;42.56;154600.84;5092311;28;20512;-60
2022/07/15 07:51:34;;;;;;;3.17;2.75;;;;;;;34.00;42.15;154607.25;5092464;28;20204;-60
2022/07/15 07:54:01;;;;;;;1.55;1.50;;;;;;;33.79;41.95;154554.59;5083092;28;20690;-59
2022/07/15 07:56:28;;;;;;;2.40;1.52;;;;;;;33.88;42.45;154576.44;5092377;28;20658;-60
2022/07/15 07:58:55;;;;;;;2.65;2.00;;;;;;;34.13;42.65;154639.38;5092103;28;20195;-59
2022/07/15 08:01:22;;;;;;;2.28;1.80;;;;;;;34.31;44.61;154685.69;5083417;28;20204;-59
2022/07/15 08:03:50;;;;;;;8.93;1.70;;;;;;;34.45;42.74;154720.38;5075911;28;20200;-60
2022/07/15 08:06:17;;;;;;;2.20;2.10;;;;;;;34.31;42.96;154685.69;5071440;28;20227;-60
2022/07/15 08:08:45;;;;;;;2.92;1.70;;;;;;;34.47;43.73;154725.47;5091940;28;20195;-60
2022/07/15 08:11:14;;;;;;;5.72;2.80;;;;;;;34.83;43.44;154819.34;5092026;28;20239;-60
2022/07/15 08:13:41;;;;;;;6.97;1.85;;;;;;;34.82;41.88;154815.50;5091374;28;20242;-60
2022/07/15 08:16:09;;;;;;;4.82;2.53;;;;;;;35.26;41.36;154927.38;5090434;28;20271;-60
2022/07/15 08:18:36;;;;;;;2.53;2.10;;;;;;;35.00;41.76;154860.47;5092007;28;20188;-59
2022/07/15 08:21:03;;;;;;;3.83;2.40;;;;;;;35.46;41.44;154978.78;5084837;28;20564;-61
2022/07/15 08:23:32;;;;;;;7.15;2.45;;;;;;;35.30;41.78;154937.66;5072040;28;20208;-61
2022/07/15 08:26:00;;;;;;;3.47;2.50;;;;;;;34.91;42.49;154838.63;5091431;28;20188;-60
2022/07/15 08:28:27;;;;;;;2.58;2.13;;;;;;;34.67;42.80;154776.97;5091385;28;20284;-60
2022/07/15 08:30:54;;;;;;;2.45;2.17;;;;;;;34.20;43.46;154658.72;5092282;28;20530;-60
2022/07/15 08:33:21;;;;;;;8.00;2.28;;;;;;;33.61;44.58;154508.31;5091103;28;20196;-60
2022/07/15 08:35:48;;;;;;;2.42;2.33;;;;;;;33.62;44.53;154510.88;5089943;28;20198;-59
2022/07/15 08:38:15;;;;;;;2.70;1.92;;;;;;;33.12;45.83;154382.44;5091418;28;20188;-60
2022/07/15 08:40:43;;;;;;;5.95;2.50;;;;;;;33.32;45.60;154433.84;5091585;28;20276;-59
2022/07/15 08:43:12;;;;;;;2.50;2.17;;;;;;;33.40;44.52;154454.38;5091115;28;20188;-59
2022/07/15 08:45:42;;;;;;;2.45;2.10;;;;;;;33.34;44.40;154440.28;5091282;28;20271;-59
2022/07/15 08:48:09;;;;;;;7.50;2.35;;;;;;;33.70;43.33;154531.47;5091237;28;20668;-59
2022/07/15 08:50:37;;;;;;;2.63;2.03;;;;;;;33.73;43.12;154537.94;5091382;28;20226;-59
2022/07/15 08:53:04;;;;;;;4.05;2.10;;;;;;;33.32;44.14;154433.84;5089656;28;20543;-59
2022/07/15 08:55:31;;;;;;;4.15;2.28;;;;;;;33.35;45.39;154442.88;5090948;28;20198;-60
2022/07/15 08:57:58;;;;;;;2.00;1.90;;;;;;;33.46;44.34;154471.09;5091083;28;20258;-60
2022/07/15 09:00:29;;;;;;;4.13;2.53;;;;;;;33.95;43.25;154594.41;5084192;28;20208;-59
2022/07/15 09:03:01;;;;;;;2.38;2.03;;;;;;;34.05;42.59;154618.81;5070251;28;20574;-59
2022/07/15 09:05:30;;;;;;;2.13;2.03;;;;;;;33.78;41.15;154550.78;5075617;28;20650;-59
2022/07/15 09:08:05;;;;;;;4.88;2.65;;;;;;;33.47;42.54;154472.38;5090019;28;20326;-60
2022/07/15 09:10:47;;;;;;;2.13;2.03;;;;;;;32.77;43.64;154293.88;5085120;28;20775;-59
2022/07/15 09:13:27;;;;;;;2.28;2.08;;;;;;;32.60;44.05;154251.47;5086471;28;20192;-60
2022/07/15 09:15:56;;;;;;;6.30;1.95;;;;;;;32.67;43.57;154268.22;5091105;28;20249;-59
2022/07/15 09:18:24;;;;;;;4.15;1.80;;;;;;;32.67;43.44;154268.22;5089001;28;20550;-59
2022/07/15 09:20:52;;;;;;;2.45;2.00;;;;;;;32.28;44.04;154169.34;5086226;28;20234;-59
2022/07/15 09:23:23;;;;;;;1.73;1.73;;;;;;;32.42;43.38;154206.53;5090166;28;20184;-60
2022/07/15 09:25:53;;;;;;;1.88;1.77;;;;;;;32.12;43.50;154130.84;5090641;28;20180;-60
2022/07/15 09:28:19;;;;;;;1.90;1.80;;;;;;;32.02;44.23;154103.88;5091127;28;20192;-60
2022/07/15 09:33:36;;;;;;;1.83;1.73;;;;;;;32.07;43.46;154118.00;5091135;28;20226;-58
2022/07/15 09:36:09;;;;;;;2.38;2.17;;;;;;;31.98;44.99;154094.91;5090977;28;20192;-60
2022/07/15 09:38:43;;;;;;;2.80;2.10;;;;;;;31.78;45.86;154043.59;5088904;28;20200;-60
2022/07/15 09:41:21;;;;;;;3.90;1.95;;;;;;;32.43;43.36;154207.81;5091370;28;20231;-59
2022/07/15 09:43:51;;;;;;;2.30;2.13;;;;;;;32.58;44.70;154246.34;5091392;28;20249;-60
2022/07/15 09:46:20;;;;;;;4.13;1.80;;;;;;;32.98;44.55;154349.06;5071078;28;20227;-60
2022/07/15 09:48:50;;;;;;;2.13;1.90;;;;;;;32.74;44.91;154287.47;5070953;28;20184;-61
2022/07/15 09:51:18;;;;;;;1.42;1.42;;;;;;;32.46;44.03;154216.81;5070327;28;20189;-60
2022/07/15 09:53:46;;;;;;;2.28;1.70;;;;;;;32.37;43.22;154192.47;5073874;28;20196;-60
2022/07/15 09:56:16;;;;;;;4.10;1.92;;;;;;;32.40;44.36;154201.44;5089888;28;20207;-59
2022/07/15 09:58:44;;;;;;;2.05;1.60;;;;;;;32.18;46.47;154146.25;5081526;28;20200;-60
2022/07/15 10:01:13;;;;;;;1.60;1.40;;;;;;;31.88;47.98;154067.91;5073463;28;20208;-59
2022/07/15 10:03:41;;;;;;;2.47;2.38;;;;;;;31.22;53.05;153902.44;5074480;28;20609;-60
2022/07/15 10:06:12;;;;;;;2.75;2.10;;;;;;;31.20;56.08;153896.00;5082688;28;20267;-59
2022/07/15 10:08:40;;;;;;;2.47;2.38;;;;;;;31.37;53.70;153938.31;5094770;28;20207;-60
2022/07/15 10:11:11;;;;;;;2.28;2.17;;;;;;;31.09;57.95;153869.09;5093799;28;20238;-61
2022/07/15 10:14:09;;;;;;;1.88;1.77;;;;;;;31.03;54.30;153853.69;5094216;28;20662;-58
2022/07/15 10:16:59;;;;;;;1.70;1.60;;;;;;;30.78;55.82;153789.53;5092713;28;20207;-60
2022/07/15 10:19:38;;;;;;;3.35;1.73;;;;;;;30.62;54.42;153748.53;5093880;28;20184;-60
2022/07/15 10:22:20;;;;;;;2.20;1.98;;;;;;;30.58;63.71;153739.56;5094637;28;20216;-60
2022/07/15 10:25:03;;;;;;;3.03;1.98;;;;;;;30.63;65.58;153752.41;5093196;28;20649;-59
2022/07/15 10:27:46;;;;;;;8.10;1.95;;;;;;;30.84;61.66;153806.22;5093976;28;20619;-59
2022/07/15 10:30:13;;;;;;;3.00;1.95;;;;;;;30.82;59.20;153801.09;5094149;28;20188;-59
2022/07/15 10:33:13;;;;;;;1.67;1.58;;;;;;;30.37;61.31;153686.97;5087613;28;20287;-59
2022/07/15 10:35:42;;;;;;;1.73;1.63;;;;;;;30.39;58.98;153692.06;5074284;28;20315;-59
2022/07/15 10:38:38;;;;;;;1.77;1.67;;;;;;;30.52;56.89;153722.88;5088244;28;20681;-60
2022/07/15 10:41:08;;;;;;;2.92;1.40;;;;;;;30.67;58.31;153761.34;5069138;28;20235;-59
2022/07/15 10:43:47;;;;;;;2.45;2.05;;;;;;;30.78;57.21;153789.53;5093444;28;20191;-60
2022/07/15 10:46:29;;;;;;;1.75;1.50;;;;;;;30.45;57.30;153706.22;5093802;28;20195;-60
2022/07/15 10:49:25;;;;;;;2.47;1.40;;;;;;;30.44;57.93;153703.66;5091677;28;20196;-60
2022/07/15 10:51:52;;;;;;;5.13;1.65;;;;;;;29.98;62.06;153585.69;5092463;28;20695;-60
2022/07/15 10:54:43;;;;;;;3.13;1.52;;;;;;;29.57;69.95;153483.19;5093379;28;20282;-60
2022/07/15 10:57:13;;;;;;;3.95;1.85;;;;;;;29.55;74.92;153476.75;5089905;28;20211;-61
2022/07/15 10:59:49;;;;;;;1.92;1.83;;;;;;;29.37;77.05;153433.19;5093763;28;20188;-61
2022/07/15 11:02:21;;;;;;;2.05;1.77;;;;;;;29.13;83.65;153371.66;5076091;28;20197;-60
2022/07/15 11:04:50;;;;;;;1.30;1.30;;;;;;;28.84;90.36;153297.38;5086845;28;20189;-60
2022/07/15 11:07:32;;;;;;;1.38;1.35;;;;;;;28.41;93.13;153189.78;5086326;28;20257;-60
2022/07/15 11:10:18;;;;;;;1.63;1.50;;;;;;;28.48;100.00;153206.41;5093479;28;20313;-61
2022/07/15 11:13:08;;;;;;;3.28;1.83;;;;;;;28.60;100.00;153238.41;5092242;28;20198;-61
2022/07/15 11:15:36;;;;;;;2.20;1.73;;;;;;;28.51;100.00;153214.13;5077862;28;20676;-60
2022/07/15 11:18:03;;;;;;;3.35;1.40;;;;;;;28.21;88.03;153138.59;5088497;28;20512;-62
2022/07/15 11:20:38;;;;;;;2.80;1.85;;;;;;;28.40;95.16;153185.94;5093158;28;20231;-61
2022/07/15 11:23:06;;;;;;;5.38;1.67;;;;;;;28.63;93.75;153244.84;5092749;28;20221;-61
2022/07/15 11:25:37;;;;;;;2.03;1.63;;;;;;;28.57;91.93;153230.75;5093271;28;20216;-61
2022/07/15 11:28:07;;;;;;;1.95;1.85;;;;;;;28.57;96.31;153230.75;5092631;28;20261;-61
2022/07/15 11:30:37;;;;;;;1.35;1.27;;;;;;;28.40;97.50;153187.22;5093209;28;20187;-61
2022/07/15 11:33:07;;;;;;;5.47;1.55;;;;;;;28.47;97.84;153205.19;5092749;28;20208;-61
2022/07/15 11:35:44;;;;;;;6.00;1.85;;;;;;;28.58;100.00;153232.03;5093098;28;20192;-62
2022/07/15 11:38:15;;;;;;;2.03;1.92;;;;;;;28.46;96.49;153202.59;5093548;28;20187;-61
2022/07/15 11:46:20;;;;;;;1.42;1.33;;;;;;;28.88;94.92;153308.91;5092964;28;20179;-61
2022/07/15 11:48:46;;;;;;;1.83;1.55;;;;;;;28.94;86.52;153323.03;5091880;28;20180;-61